Time;durP1;ratioP1;P1;durP2;ratioP2;P2;SDS_P1;SDS_P2;PMS_P1;PMS_P2;Temp;Humidity;BMP_temperature;BMP_pressure;BME280_temperature;BME280_humidity;BME280_pressure;Samples;Min_cycle;Max_cycle;Signal;HPM_P1;HPM_P2
2023/12/02 00:00:45;;;;;;;21.00;10.35;;;-1.00;99.90;;;;;;5048202;28;20036;-46
2023/12/02 00:03:10;;;;;;;22.95;11.50;;;-1.00;99.90;;;;;;5048129;28;20035;-46
2023/12/02 00:05:36;;;;;;;21.05;11.18;;;-0.90;99.90;;;;;;5048104;28;20522;-45
2023/12/02 00:08:02;;;;;;;17.08;9.68;;;-1.00;99.90;;;;;;5047496;28;20056;-45
2023/12/02 00:10:27;;;;;;;24.73;11.35;;;-1.00;99.90;;;;;;5048245;28;20389;-46
2023/12/02 00:12:53;;;;;;;17.52;9.15;;;-1.00;99.90;;;;;;5048219;28;20136;-47
2023/12/02 00:15:18;;;;;;;22.23;10.52;;;-1.00;99.90;;;;;;5048048;28;20071;-44
2023/12/02 00:17:44;;;;;;;20.95;11.35;;;-1.00;99.90;;;;;;5047903;28;20359;-46
2023/12/02 00:20:10;;;;;;;19.67;10.55;;;-0.90;99.90;;;;;;5047927;28;20032;-47
2023/12/02 00:22:36;;;;;;;18.85;9.82;;;-0.90;99.90;;;;;;5047798;28;20025;-45
2023/12/02 00:25:01;;;;;;;17.67;10.32;;;-0.90;99.90;;;;;;5047857;28;20025;-45
2023/12/02 00:27:27;;;;;;;19.48;9.50;;;-0.90;99.90;;;;;;5047864;28;20052;-45
2023/12/02 00:29:52;;;;;;;18.67;9.77;;;-0.90;99.90;;;;;;5047559;28;20075;-45
2023/12/02 00:32:18;;;;;;;19.73;10.18;;;-0.90;99.90;;;;;;5047903;28;20055;-45
2023/12/02 00:34:44;;;;;;;19.33;10.05;;;-0.90;99.90;;;;;;5047725;28;20025;-45
2023/12/02 00:37:09;;;;;;;18.92;9.55;;;-0.90;99.90;;;;;;5045467;28;20408;-45
2023/12/02 00:39:35;;;;;;;21.73;11.02;;;-1.00;99.90;;;;;;5047366;28;20529;-45
2023/12/02 00:42:00;;;;;;;19.92;10.13;;;-1.00;99.90;;;;;;5044272;28;20033;-47
2023/12/02 00:44:26;;;;;;;20.65;10.52;;;-1.00;99.90;;;;;;5049035;28;20032;-44
2023/12/02 00:46:52;;;;;;;22.85;10.38;;;-1.00;99.90;;;;;;5044607;28;20041;-48
2023/12/02 00:49:17;;;;;;;19.48;10.18;;;-1.00;99.90;;;;;;5035695;28;20014;-46
2023/12/02 00:51:43;;;;;;;19.00;10.45;;;-1.00;99.90;;;;;;5030092;28;20497;-48
2023/12/02 00:54:08;;;;;;;20.48;10.73;;;-1.00;99.90;;;;;;5034065;28;20032;-49
2023/12/02 00:56:34;;;;;;;20.17;11.35;;;-0.90;99.90;;;;;;5031622;28;20017;-49
2023/12/02 00:59:00;;;;;;;20.42;11.27;;;-0.90;99.90;;;;;;5036638;28;20035;-46
2023/12/02 01:01:25;;;;;;;18.98;10.40;;;-1.00;99.90;;;;;;5050913;28;20079;-48
2023/12/02 01:03:51;;;;;;;20.05;9.95;;;-0.90;99.90;;;;;;5051015;28;20025;-45
2023/12/02 01:06:17;;;;;;;22.08;11.40;;;-0.90;99.90;;;;;;5050934;28;20033;-46
2023/12/02 01:08:42;;;;;;;19.33;10.60;;;-0.90;99.90;;;;;;5050674;28;20061;-49
2023/12/02 01:11:08;;;;;;;19.63;10.00;;;-1.00;99.90;;;;;;5042809;28;20470;-46
2023/12/02 01:13:33;;;;;;;17.48;10.20;;;-1.00;99.90;;;;;;5049450;28;20091;-46
2023/12/02 01:15:59;;;;;;;19.73;9.23;;;-1.10;99.90;;;;;;5050608;28;20466;-47
2023/12/02 01:18:24;;;;;;;17.88;8.98;;;-1.10;99.90;;;;;;5042628;28;20030;-46
2023/12/02 01:20:50;;;;;;;16.45;8.45;;;-1.00;99.90;;;;;;5036493;28;20401;-45
2023/12/02 01:23:16;;;;;;;17.27;8.98;;;-1.10;99.90;;;;;;5039732;28;20132;-46
2023/12/02 01:25:41;;;;;;;14.13;8.48;;;-1.00;99.90;;;;;;5033426;28;20036;-45
2023/12/02 01:28:08;;;;;;;15.57;7.65;;;-1.00;99.90;;;;;;5031327;28;20064;-46
2023/12/02 01:30:34;;;;;;;16.48;8.55;;;-1.00;99.90;;;;;;5030594;28;20025;-44
2023/12/02 01:32:59;;;;;;;15.30;8.48;;;-1.00;99.90;;;;;;5031271;28;20433;-48
2023/12/02 01:35:25;;;;;;;16.20;8.23;;;-1.00;99.90;;;;;;5031646;28;20010;-49
2023/12/02 01:37:50;;;;;;;17.50;8.13;;;-1.00;99.90;;;;;;5029878;28;20021;-46
2023/12/02 01:40:16;;;;;;;17.73;8.40;;;-1.10;99.90;;;;;;5033373;28;20061;-44
2023/12/02 01:42:41;;;;;;;15.45;8.15;;;-1.10;99.90;;;;;;5035967;28;20478;-46
2023/12/02 01:45:07;;;;;;;17.13;8.20;;;-1.10;99.90;;;;;;5033974;28;20356;-47
2023/12/02 01:47:33;;;;;;;15.15;7.72;;;-1.10;99.90;;;;;;5035740;28;20076;-46
2023/12/02 01:50:00;;;;;;;18.95;9.27;;;-1.10;99.90;;;;;;5033584;28;20025;-47
2023/12/02 01:52:26;;;;;;;16.42;8.55;;;-1.10;99.90;;;;;;5034054;28;20022;-45
2023/12/02 01:54:52;;;;;;;14.73;9.13;;;-1.10;99.90;;;;;;5042671;28;20021;-47
2023/12/02 01:57:20;;;;;;;17.50;9.25;;;-1.00;99.90;;;;;;5041624;28;20291;-45
2023/12/02 01:59:53;;;;;;;14.70;8.43;;;-1.00;99.90;;;;;;5049747;28;20025;-47
2023/12/02 02:02:18;;;;;;;17.33;8.68;;;-1.00;99.90;;;;;;5049924;28;20048;-46
2023/12/02 02:04:44;;;;;;;15.20;7.75;;;-1.10;99.90;;;;;;5049803;28;20517;-45
2023/12/02 02:07:10;;;;;;;12.05;7.80;;;-1.10;99.90;;;;;;5049660;28;20040;-46
2023/12/02 02:09:45;;;;;;;15.20;9.25;;;-1.10;99.90;;;;;;5040084;28;20048;-45
2023/12/02 02:12:11;;;;;;;14.10;8.18;;;-1.20;99.90;;;;;;5029945;28;20022;-47
2023/12/02 02:14:36;;;;;;;14.27;8.20;;;-1.20;99.90;;;;;;5048479;28;20466;-44
2023/12/02 02:17:02;;;;;;;18.73;8.50;;;-1.20;99.90;;;;;;5049798;28;20086;-48
2023/12/02 02:19:28;;;;;;;15.27;7.95;;;-1.20;99.90;;;;;;5049573;28;20470;-44
2023/12/02 02:21:53;;;;;;;16.85;9.70;;;-1.10;99.90;;;;;;5042685;28;20540;-46
2023/12/02 02:24:19;;;;;;;15.43;8.85;;;-1.10;99.90;;;;;;5038129;28;20026;-44
2023/12/02 02:26:44;;;;;;;16.50;9.27;;;-1.10;99.90;;;;;;5036713;28;20037;-46
2023/12/02 02:29:10;;;;;;;20.30;9.95;;;-1.10;99.90;;;;;;5043762;28;20029;-45
2023/12/02 02:31:36;;;;;;;20.20;10.77;;;-1.00;99.90;;;;;;5047744;28;20068;-47
2023/12/02 02:34:02;;;;;;;20.30;10.40;;;-1.10;99.90;;;;;;5034922;28;20462;-45
2023/12/02 02:36:27;;;;;;;20.30;10.60;;;-1.10;99.90;;;;;;5048605;28;20097;-46
2023/12/02 02:38:53;;;;;;;18.73;11.13;;;-1.10;99.90;;;;;;5028080;28;20120;-48
2023/12/02 02:41:18;;;;;;;18.75;10.52;;;-1.10;99.90;;;;;;5028605;28;20509;-45
2023/12/02 02:43:46;;;;;;;17.83;10.02;;;-1.20;99.90;;;;;;5028019;28;20041;-45
2023/12/02 02:46:13;;;;;;;23.50;10.45;;;-1.20;99.90;;;;;;5029335;28;20592;-45
2023/12/02 02:48:39;;;;;;;20.92;10.48;;;-1.10;99.90;;;;;;5027180;28;20035;-46
2023/12/02 02:51:05;;;;;;;18.02;9.60;;;-1.20;99.90;;;;;;5034794;28;20452;-48
2023/12/02 02:53:30;;;;;;;19.13;10.38;;;-1.20;99.90;;;;;;5028914;28;20021;-44
2023/12/02 02:55:56;;;;;;;22.98;11.32;;;-1.20;99.90;;;;;;5034368;28;20100;-49
2023/12/02 02:58:21;;;;;;;18.17;9.98;;;-1.10;99.90;;;;;;5058104;28;20025;-44
2023/12/02 03:00:47;;;;;;;21.13;11.50;;;-1.20;99.90;;;;;;5049201;28;20497;-46
2023/12/02 03:03:13;;;;;;;26.38;12.40;;;-1.20;99.90;;;;;;5042304;28;20199;-45
2023/12/02 03:05:38;;;;;;;25.33;11.77;;;-1.20;99.90;;;;;;5046855;28;20482;-49
2023/12/02 03:08:04;;;;;;;22.13;11.82;;;-1.20;99.90;;;;;;5047635;28;20059;-46
2023/12/02 03:10:30;;;;;;;19.98;11.13;;;-1.30;99.90;;;;;;5048102;28;20028;-47
2023/12/02 03:12:56;;;;;;;20.05;10.88;;;-1.30;99.90;;;;;;5047453;28;20541;-49
2023/12/02 03:15:21;;;;;;;24.33;12.00;;;-1.30;99.90;;;;;;5048096;28;20021;-49
2023/12/02 03:17:47;;;;;;;21.83;10.52;;;-1.30;99.90;;;;;;5046793;28;20036;-46
2023/12/02 03:20:12;;;;;;;20.23;11.55;;;-1.30;99.90;;;;;;5047194;28;20032;-45
2023/12/02 03:22:38;;;;;;;24.02;12.15;;;-1.30;99.90;;;;;;5048692;28;20127;-47
2023/12/02 03:25:04;;;;;;;24.33;12.30;;;-1.40;99.90;;;;;;5048547;28;20344;-49
2023/12/02 03:27:30;;;;;;;18.75;10.68;;;-1.30;99.90;;;;;;5048329;28;20044;-49
2023/12/02 03:29:56;;;;;;;21.15;10.75;;;-1.40;99.90;;;;;;5048276;28;20466;-46
2023/12/02 03:32:21;;;;;;;20.70;11.32;;;-1.40;99.90;;;;;;5048399;28;20017;-44
2023/12/02 03:34:47;;;;;;;18.83;10.93;;;-1.40;99.90;;;;;;5048404;28;20566;-49
2023/12/02 03:37:12;;;;;;;18.17;11.27;;;-1.40;99.90;;;;;;5048556;28;20440;-46
2023/12/02 03:39:38;;;;;;;23.23;12.10;;;-1.40;99.90;;;;;;5048185;28;20040;-46
2023/12/02 03:42:04;;;;;;;21.73;11.10;;;-1.40;99.90;;;;;;5048686;28;20461;-49
2023/12/02 03:44:29;;;;;;;19.35;10.60;;;-1.40;99.90;;;;;;5048221;28;20058;-46
2023/12/02 03:46:55;;;;;;;21.98;11.35;;;-1.40;99.90;;;;;;5048358;28;20029;-45
2023/12/02 03:49:20;;;;;;;19.80;11.10;;;-1.40;99.90;;;;;;5048144;28;20025;-45
2023/12/02 03:51:46;;;;;;;19.67;11.05;;;-1.40;99.90;;;;;;5048517;28;20025;-44
2023/12/02 03:54:12;;;;;;;19.23;10.40;;;-1.40;99.90;;;;;;5042135;28;20029;-47
2023/12/02 03:56:39;;;;;;;18.65;10.27;;;-1.50;99.90;;;;;;5046342;28;20029;-45
2023/12/02 03:59:04;;;;;;;17.13;9.98;;;-1.40;99.90;;;;;;5044155;28;20561;-49
2023/12/02 04:01:31;;;;;;;23.25;11.10;;;-1.40;99.90;;;;;;5047840;28;20116;-46
2023/12/02 04:03:57;;;;;;;22.95;11.27;;;-1.40;99.90;;;;;;5044029;28;20025;-49
2023/12/02 04:06:23;;;;;;;19.73;10.30;;;-1.40;99.90;;;;;;5047569;28;20476;-48
2023/12/02 04:08:49;;;;;;;22.58;10.75;;;-1.40;99.90;;;;;;5043839;28;20111;-45
2023/12/02 04:11:14;;;;;;;19.85;10.45;;;-1.50;99.90;;;;;;5048049;28;20012;-49
2023/12/02 04:13:40;;;;;;;22.35;11.73;;;-1.40;99.90;;;;;;5048058;28;20029;-46
2023/12/02 04:16:06;;;;;;;19.92;10.85;;;-1.50;99.90;;;;;;5047985;28;20028;-49
2023/12/02 04:18:33;;;;;;;20.15;10.85;;;-1.50;99.90;;;;;;5049565;28;20029;-46
2023/12/02 04:20:58;;;;;;;22.88;11.52;;;-1.50;99.90;;;;;;5052068;28;20025;-48
2023/12/02 04:23:24;;;;;;;19.83;10.93;;;-1.50;99.90;;;;;;5051575;28;20047;-48
2023/12/02 04:25:50;;;;;;;17.83;9.68;;;-1.50;99.90;;;;;;5051765;28;20087;-49
2023/12/02 04:28:16;;;;;;;19.77;9.48;;;-1.60;99.90;;;;;;5051446;28;20078;-45
2023/12/02 04:30:42;;;;;;;25.30;10.85;;;-1.60;99.90;;;;;;5050387;28;20469;-48
2023/12/02 04:33:09;;;;;;;21.80;11.52;;;-1.60;99.90;;;;;;5051670;28;20017;-46
2023/12/02 04:35:38;;;;;;;22.63;11.00;;;-1.50;99.90;;;;;;5051839;28;20029;-46
2023/12/02 04:38:07;;;;;;;18.50;10.07;;;-1.60;99.90;;;;;;5049909;28;20514;-49
2023/12/02 04:40:33;;;;;;;21.95;11.07;;;-1.60;99.90;;;;;;5050200;28;20481;-47
2023/12/02 04:42:58;;;;;;;17.48;10.00;;;-1.60;99.90;;;;;;5049943;28;20029;-44
2023/12/02 04:45:24;;;;;;;25.50;11.15;;;-1.60;99.90;;;;;;5051385;28;20025;-47
2023/12/02 04:47:49;;;;;;;19.05;9.88;;;-1.60;99.90;;;;;;5051448;28;20561;-47
2023/12/02 04:50:15;;;;;;;27.05;12.20;;;-1.60;99.90;;;;;;5049728;28;20035;-47
2023/12/02 04:52:41;;;;;;;27.27;12.02;;;-1.60;99.90;;;;;;5051249;28;20465;-46
2023/12/02 04:55:07;;;;;;;26.50;13.07;;;-1.60;99.90;;;;;;5051154;28;20556;-46
2023/12/02 04:57:33;;;;;;;24.52;12.57;;;-1.70;99.90;;;;;;5049757;28;20056;-49
2023/12/02 04:59:58;;;;;;;27.35;12.68;;;-1.60;99.90;;;;;;5050821;28;20489;-46
2023/12/02 05:02:24;;;;;;;25.15;12.20;;;-1.60;99.90;;;;;;5051224;28;20457;-45
2023/12/02 05:04:50;;;;;;;24.73;12.55;;;-1.60;99.90;;;;;;5050963;28;20029;-48
2023/12/02 05:07:15;;;;;;;29.65;13.07;;;-1.60;99.90;;;;;;5051086;28;20489;-46
2023/12/02 05:09:41;;;;;;;30.95;13.30;;;-1.60;99.90;;;;;;5050582;28;20025;-46
2023/12/02 05:12:07;;;;;;;33.35;14.45;;;-1.60;99.90;;;;;;5050916;28;20409;-48
2023/12/02 05:14:34;;;;;;;25.90;11.82;;;-1.60;99.90;;;;;;5050794;28;20456;-47
2023/12/02 05:16:59;;;;;;;28.60;13.98;;;-1.60;99.90;;;;;;5050784;28;20021;-47
2023/12/02 05:19:25;;;;;;;27.42;12.40;;;-1.50;99.90;;;;;;5049266;28;20021;-48
2023/12/02 05:21:51;;;;;;;26.02;11.95;;;-1.60;99.90;;;;;;5051289;28;20021;-47
2023/12/02 05:24:19;;;;;;;25.35;12.43;;;-1.60;99.90;;;;;;5050680;28;20103;-48
2023/12/02 05:26:44;;;;;;;26.90;12.23;;;-1.50;99.90;;;;;;5050274;28;20029;-47
2023/12/02 05:29:10;;;;;;;25.25;12.65;;;-1.60;99.90;;;;;;5048234;28;20502;-46
2023/12/02 05:31:37;;;;;;;31.35;13.85;;;-1.60;99.90;;;;;;5048978;28;20048;-48
2023/12/02 05:34:03;;;;;;;29.10;13.25;;;-1.60;99.90;;;;;;5050411;28;20033;-48
2023/12/02 05:36:29;;;;;;;29.25;14.05;;;-1.70;99.90;;;;;;5050256;28;20501;-47
2023/12/02 05:38:54;;;;;;;31.75;13.60;;;-1.70;99.90;;;;;;5048908;28;20037;-47
2023/12/02 05:41:20;;;;;;;31.63;15.18;;;-1.60;99.90;;;;;;5050135;28;20032;-47
2023/12/02 05:43:46;;;;;;;27.48;14.30;;;-1.60;99.90;;;;;;5050391;28;20123;-48
2023/12/02 05:46:16;;;;;;;27.00;13.00;;;-1.60;99.90;;;;;;5049127;28;20028;-47
2023/12/02 05:48:43;;;;;;;33.58;13.88;;;-1.60;99.90;;;;;;5049827;28;20025;-46
2023/12/02 05:51:08;;;;;;;22.40;11.82;;;-1.60;99.90;;;;;;5050707;28;20021;-45
2023/12/02 05:53:34;;;;;;;22.55;10.43;;;-1.50;99.90;;;;;;5050060;28;20025;-46
2023/12/02 05:56:00;;;;;;;26.50;13.43;;;-1.50;99.90;;;;;;5040995;28;20517;-48
2023/12/02 05:58:26;;;;;;;28.00;11.82;;;-1.50;99.90;;;;;;5041297;28;20107;-45
2023/12/02 06:00:52;;;;;;;27.50;10.90;;;-1.50;99.90;;;;;;5033994;28;20455;-44
2023/12/02 06:03:17;;;;;;;22.02;10.90;;;-1.50;99.90;;;;;;5046502;28;20441;-47
2023/12/02 06:05:43;;;;;;;19.67;9.80;;;-1.50;99.90;;;;;;5033507;28;20033;-46
2023/12/02 06:08:09;;;;;;;20.67;9.73;;;-1.50;99.90;;;;;;5049461;28;20055;-47
2023/12/02 06:10:34;;;;;;;23.73;11.13;;;-1.50;99.90;;;;;;5049875;28;20025;-46
2023/12/02 06:13:00;;;;;;;18.38;9.63;;;-1.50;99.90;;;;;;5049626;28;20021;-47
2023/12/02 06:15:25;;;;;;;19.70;10.20;;;-1.50;99.90;;;;;;5049767;28;20221;-47
2023/12/02 06:17:56;;;;;;;21.88;10.02;;;-1.50;99.90;;;;;;5044917;28;20017;-45
2023/12/02 06:20:24;;;;;;;;;;;-1.40;99.90;;;;;;5038568;28;20032;-47
2023/12/02 06:22:50;;;;;;;16.10;8.95;;;-1.40;99.90;;;;;;5046912;28;20262;-44
2023/12/02 06:25:16;;;;;;;15.23;8.10;;;-1.40;99.90;;;;;;5029303;28;20540;-46
2023/12/02 06:27:41;;;;;;;10.45;5.28;;;-1.30;99.90;;;;;;5029244;28;20025;-45
2023/12/02 06:30:08;;;;;;;10.88;5.90;;;-1.40;99.90;;;;;;5028510;28;20085;-47
2023/12/02 06:32:33;;;;;;;12.40;6.80;;;-1.40;99.90;;;;;;5036554;28;20010;-48
2023/12/02 06:34:59;;;;;;;11.30;6.32;;;-1.40;99.90;;;;;;5035044;28;20028;-48
2023/12/02 06:37:24;;;;;;;9.07;5.88;;;-1.40;99.90;;;;;;5035413;28;20215;-46
2023/12/02 06:39:50;;;;;;;13.82;7.03;;;-1.40;99.90;;;;;;5035853;28;20028;-47
2023/12/02 06:42:16;;;;;;;12.23;6.28;;;-1.40;99.90;;;;;;5034321;28;20063;-46
2023/12/02 06:44:44;;;;;;;12.77;6.30;;;-1.40;99.90;;;;;;5037225;28;20096;-45
2023/12/02 06:47:10;;;;;;;11.25;6.00;;;-1.40;99.90;;;;;;5034441;28;20020;-49
2023/12/02 06:49:36;;;;;;;12.88;5.63;;;-1.30;99.90;;;;;;5036330;28;20025;-49
2023/12/02 06:52:03;;;;;;;12.23;5.97;;;-1.30;99.90;;;;;;5034204;28;20111;-48
2023/12/02 06:54:28;;;;;;;10.65;6.22;;;-1.30;99.90;;;;;;5035488;28;20466;-47
2023/12/02 06:56:54;;;;;;;11.02;6.32;;;-1.40;99.90;;;;;;5035403;28;20044;-47
2023/12/02 06:59:19;;;;;;;14.55;6.10;;;-1.40;99.90;;;;;;5034033;28;20318;-47
2023/12/02 07:01:45;;;;;;;11.13;6.03;;;-1.30;99.90;;;;;;5031273;28;20265;-47
2023/12/02 07:04:11;;;;;;;11.45;5.90;;;-1.40;99.90;;;;;;5028625;28;20025;-49
2023/12/02 07:06:39;;;;;;;11.48;5.95;;;-1.40;99.90;;;;;;5030875;28;20552;-44
2023/12/02 07:09:05;;;;;;;10.10;5.75;;;-1.30;99.90;;;;;;5048096;28;20437;-44
2023/12/02 07:11:31;;;;;;;13.07;6.47;;;-1.30;99.90;;;;;;5042078;28;20028;-45
2023/12/02 07:13:58;;;;;;;11.27;6.25;;;-1.30;99.90;;;;;;5049096;28;20041;-44
2023/12/02 07:16:23;;;;;;;12.75;6.55;;;-1.20;99.90;;;;;;5044296;28;20029;-43
2023/12/02 07:18:49;;;;;;;10.55;6.25;;;-1.20;99.90;;;;;;5048076;28;20039;-43
2023/12/02 07:21:14;;;;;;;11.68;6.55;;;-1.20;99.90;;;;;;5044254;28;20021;-43
2023/12/02 07:23:40;;;;;;;12.20;6.47;;;-1.20;99.90;;;;;;5048296;28;20437;-44
2023/12/02 07:26:06;;;;;;;11.23;5.93;;;-1.20;99.90;;;;;;5042830;28;20029;-43
2023/12/02 07:28:32;;;;;;;11.70;5.75;;;-1.20;99.90;;;;;;5047986;28;20508;-43
2023/12/02 07:30:57;;;;;;;13.88;7.03;;;-1.20;99.90;;;;;;5048637;28;20100;-43
2023/12/02 07:33:23;;;;;;;13.40;6.72;;;-1.20;99.90;;;;;;5048492;28;20017;-43
2023/12/02 07:35:49;;;;;;;12.85;6.07;;;-1.30;99.90;;;;;;5047427;28;20028;-45
2023/12/02 07:38:14;;;;;;;14.35;6.65;;;-1.30;99.90;;;;;;5047998;28;20066;-45
2023/12/02 07:40:40;;;;;;;12.52;6.82;;;-1.30;99.90;;;;;;5048437;28;20017;-46
2023/12/02 07:43:06;;;;;;;13.70;6.88;;;-1.20;99.90;;;;;;5032982;28;20403;-45
2023/12/02 07:45:31;;;;;;;18.05;8.65;;;-1.20;99.90;;;;;;5029357;28;20044;-44
2023/12/02 07:47:57;;;;;;;19.65;8.25;;;-1.20;99.90;;;;;;5028869;28;20471;-44
2023/12/02 07:50:24;;;;;;;14.43;7.50;;;-1.10;99.90;;;;;;5028878;28;20085;-43
2023/12/02 07:52:49;;;;;;;17.83;8.55;;;-1.10;99.90;;;;;;5029621;28;20036;-48
2023/12/02 07:55:15;;;;;;;13.40;7.82;;;-1.10;99.90;;;;;;5032099;28;20482;-47
2023/12/02 07:57:41;;;;;;;14.95;8.13;;;-1.10;99.90;;;;;;5031873;28;20030;-47
2023/12/02 08:00:10;;;;;;;16.17;7.85;;;-1.10;99.90;;;;;;5027813;28;20021;-48
2023/12/02 08:02:35;;;;;;;12.60;6.80;;;-1.10;99.90;;;;;;5042786;28;20052;-46
2023/12/02 08:05:01;;;;;;;13.55;7.40;;;-1.10;99.90;;;;;;5051959;28;20029;-48
2023/12/02 08:07:27;;;;;;;17.73;8.65;;;-1.20;99.90;;;;;;5050443;28;20033;-47
2023/12/02 08:09:52;;;;;;;17.48;8.60;;;-1.10;99.90;;;;;;5051786;28;20051;-44
2023/12/02 08:12:18;;;;;;;14.60;7.47;;;-1.20;99.90;;;;;;5052309;28;20029;-45
2023/12/02 08:14:43;;;;;;;16.30;8.43;;;-1.10;99.90;;;;;;5052442;28;20382;-43
2023/12/02 08:17:09;;;;;;;17.33;8.65;;;-1.10;99.90;;;;;;5030914;28;20038;-46
2023/12/02 08:19:35;;;;;;;15.32;8.07;;;-1.00;99.90;;;;;;5034113;28;20476;-43
2023/12/02 08:22:01;;;;;;;19.00;9.65;;;-1.00;99.90;;;;;;5052017;28;20051;-44
2023/12/02 08:24:26;;;;;;;17.38;9.50;;;-0.90;99.90;;;;;;5051732;28;20224;-45
2023/12/02 08:26:52;;;;;;;15.07;8.38;;;-0.90;99.90;;;;;;5046766;28;20041;-45
2023/12/02 08:29:18;;;;;;;16.55;8.50;;;-0.90;99.90;;;;;;5051483;28;20108;-43
2023/12/02 08:31:43;;;;;;;16.92;8.57;;;-0.80;99.90;;;;;;5050711;28;20100;-44
2023/12/02 08:34:09;;;;;;;17.52;8.65;;;-0.80;99.90;;;;;;5046924;28;20416;-44
2023/12/02 08:36:35;;;;;;;17.83;8.65;;;-0.80;99.90;;;;;;5051467;28;20029;-43
2023/12/02 08:39:02;;;;;;;14.20;7.97;;;-0.70;99.90;;;;;;5051442;28;20226;-43
2023/12/02 08:41:28;;;;;;;15.63;8.68;;;-0.80;99.90;;;;;;5047319;28;20029;-43
2023/12/02 08:43:53;;;;;;;14.05;7.57;;;-0.70;99.90;;;;;;5051229;28;20032;-44
2023/12/02 08:46:19;;;;;;;16.80;8.90;;;-0.70;99.90;;;;;;5051322;28;20086;-43
2023/12/02 08:48:45;;;;;;;15.07;7.80;;;-0.70;99.90;;;;;;5051090;28;20037;-44
2023/12/02 08:51:11;;;;;;;13.38;7.72;;;-0.70;99.90;;;;;;5050052;28;20028;-44
2023/12/02 08:53:37;;;;;;;16.40;8.50;;;-0.60;99.90;;;;;;5049918;28;20079;-45
2023/12/02 08:56:04;;;;;;;16.25;8.40;;;-0.60;99.90;;;;;;5051328;28;20049;-45
2023/12/02 08:58:29;;;;;;;17.02;9.00;;;-0.60;99.90;;;;;;5041334;28;20462;-46
2023/12/02 09:00:55;;;;;;;18.38;8.55;;;-0.60;99.90;;;;;;5044804;28;20025;-44
2023/12/02 09:03:21;;;;;;;15.88;8.55;;;-0.50;99.90;;;;;;5050778;28;20017;-48
2023/12/02 09:05:46;;;;;;;18.83;9.18;;;-0.50;99.90;;;;;;5049385;28;20112;-44
2023/12/02 09:08:12;;;;;;;19.58;9.20;;;-0.40;99.90;;;;;;5050697;28;20057;-43
2023/12/02 09:10:38;;;;;;;17.65;8.85;;;-0.30;99.90;;;;;;5050662;28;20047;-44
2023/12/02 09:13:46;;;;;;;19.65;9.13;;;-0.30;99.90;;;;;;5050900;28;20522;-44
2023/12/02 09:16:19;;;;;;;19.08;9.18;;;-0.20;99.90;;;;;;5050904;28;20025;-46
2023/12/02 09:18:45;;;;;;;22.67;9.95;;;-0.10;99.90;;;;;;5050439;28;20029;-44
2023/12/02 09:21:42;;;;;;;18.13;9.85;;;0.00;99.90;;;;;;5051039;28;20036;-45
2023/12/02 09:24:30;;;;;;;16.52;9.35;;;0.00;99.90;;;;;;5050366;28;20510;-43
2023/12/02 09:26:55;;;;;;;20.33;10.13;;;0.00;99.90;;;;;;5050145;28;20078;-46
2023/12/02 09:29:31;;;;;;;19.77;9.43;;;0.10;99.90;;;;;;5048781;28;20291;-45
2023/12/02 09:31:56;;;;;;;17.77;10.13;;;0.10;99.90;;;;;;5043320;28;20021;-46
2023/12/02 09:34:56;;;;;;;22.33;10.20;;;0.20;99.90;;;;;;5036954;28;20095;-44
2023/12/02 09:37:52;;;;;;;24.65;11.18;;;0.30;99.90;;;;;;5044001;28;20036;-46
2023/12/02 09:40:18;;;;;;;23.58;10.68;;;0.30;99.90;;;;;;5044526;28;20150;-45
2023/12/02 09:42:56;;;;;;;24.95;13.50;;;0.30;99.90;;;;;;5049444;28;20025;-44
2023/12/02 09:45:27;;;;;;;23.88;12.88;;;0.30;99.90;;;;;;5050738;28;20033;-43
2023/12/02 09:48:13;;;;;;;20.58;11.77;;;0.20;99.90;;;;;;5050357;28;20028;-45
2023/12/02 09:50:47;;;;;;;24.92;12.77;;;0.20;99.90;;;;;;5050288;28;20087;-48
2023/12/02 09:53:28;;;;;;;29.63;13.73;;;0.20;99.90;;;;;;5050016;28;20497;-48
2023/12/02 09:56:03;;;;;;;26.45;14.45;;;0.20;99.90;;;;;;5050294;28;20075;-46
2023/12/02 09:58:42;;;;;;;28.55;13.93;;;0.10;99.90;;;;;;5050015;28;20021;-45
2023/12/02 10:01:42;;;;;;;29.05;15.00;;;0.10;99.90;;;;;;5050226;28;20297;-45
2023/12/02 10:04:23;;;;;;;29.77;13.53;;;0.10;99.90;;;;;;5049877;28;20090;-46
2023/12/02 10:07:00;;;;;;;;;;;0.10;99.90;;;;;;5065979;28;20033;-47
2023/12/02 10:10:04;;;;;;;34.05;15.40;;;0.00;99.90;;;;;;5049796;28;19909;-44
2023/12/02 10:12:36;;;;;;;30.75;16.05;;;0.00;99.90;;;;;;5050033;28;20031;-45
2023/12/02 10:15:05;;;;;;;36.97;16.75;;;0.00;99.90;;;;;;5049826;28;20017;-48
2023/12/02 10:17:41;;;;;;;35.97;16.52;;;-0.10;99.90;;;;;;5049491;28;20025;-46
2023/12/02 10:20:12;;;;;;;36.65;16.73;;;0.00;99.90;;;;;;5049317;28;20079;-46
2023/12/02 10:22:54;;;;;;;31.92;15.13;;;-0.20;99.90;;;;;;5048037;28;20131;-46
2023/12/02 10:25:26;;;;;;;37.53;16.83;;;-0.10;99.90;;;;;;5049838;28;20108;-45
2023/12/02 10:27:56;;;;;;;37.38;17.95;;;-0.10;99.90;;;;;;5041669;28;20021;-44
2023/12/02 10:30:23;;;;;;;43.28;19.73;;;-0.10;99.90;;;;;;5047631;28;20031;-44
2023/12/02 10:33:21;;;;;;;40.58;19.15;;;-0.20;99.90;;;;;;5043050;28;20025;-46
2023/12/02 10:35:48;;;;;;;43.08;19.55;;;-0.20;99.90;;;;;;5039628;28;20060;-45
2023/12/02 10:38:53;;;;;;;42.90;20.52;;;-0.20;99.90;;;;;;5042658;28;20086;-44
2023/12/02 10:41:34;;;;;;;41.47;18.80;;;-0.20;99.90;;;;;;5046603;28;20033;-43
2023/12/02 10:44:04;;;;;;;43.33;19.80;;;-0.20;99.90;;;;;;5043454;28;20649;-43
2023/12/02 10:46:32;;;;;;;41.60;20.10;;;-0.30;99.90;;;;;;5049184;28;20029;-44
2023/12/02 10:48:58;;;;;;;47.15;21.17;;;-0.40;99.90;;;;;;5048725;28;20029;-43
2023/12/02 10:51:26;;;;;;;53.65;22.08;;;-0.40;99.90;;;;;;5049082;28;20086;-43
2023/12/02 10:53:57;;;;;;;43.83;21.65;;;-0.30;99.90;;;;;;5048830;28;20397;-42
2023/12/02 10:56:26;;;;;;;47.20;21.02;;;-0.40;99.90;;;;;;5048387;28;20486;-44
2023/12/02 10:58:52;;;;;;;49.92;22.05;;;-0.40;99.90;;;;;;5047548;28;20079;-44
2023/12/02 11:01:27;;;;;;;51.72;21.92;;;-0.40;99.90;;;;;;5049148;28;20052;-47
2023/12/02 11:04:25;;;;;;;46.20;22.25;;;-0.30;99.90;;;;;;5049023;28;20029;-43
2023/12/02 11:06:54;;;;;;;56.10;24.52;;;-0.20;99.90;;;;;;5049022;28;20146;-47
2023/12/02 11:09:40;;;;;;;52.50;23.50;;;-0.20;99.90;;;;;;5048442;28;20257;-44
2023/12/02 11:12:19;;;;;;;51.15;23.02;;;-0.10;99.90;;;;;;5049156;28;20028;-45
2023/12/02 11:14:48;;;;;;;53.45;25.10;;;-0.10;99.90;;;;;;5048605;28;20028;-43
2023/12/02 11:17:29;;;;;;;50.47;22.70;;;-0.10;99.90;;;;;;5047128;28;20033;-43
2023/12/02 11:20:15;;;;;;;45.00;22.45;;;-0.10;99.90;;;;;;5048554;28;20632;-44
2023/12/02 11:23:12;;;;;;;51.60;22.98;;;0.00;99.90;;;;;;5048317;28;20045;-44
2023/12/02 11:25:57;;;;;;;48.92;22.65;;;0.00;99.90;;;;;;5048560;28;20036;-44
2023/12/02 11:28:31;;;;;;;49.78;23.45;;;0.00;99.90;;;;;;5047223;28;20040;-44
2023/12/02 11:31:06;;;;;;;42.03;20.38;;;0.00;99.90;;;;;;5048775;28;20021;-44
2023/12/02 11:33:50;;;;;;;54.35;23.80;;;0.00;99.90;;;;;;5047142;28;20032;-46
2023/12/02 11:36:33;;;;;;;51.33;23.70;;;0.00;99.90;;;;;;5048645;28;20036;-47
2023/12/02 11:39:26;;;;;;;47.78;23.05;;;0.00;99.90;;;;;;5048039;28;20406;-47
2023/12/02 11:41:59;;;;;;;53.60;23.85;;;0.00;99.90;;;;;;5048804;28;20024;-44
2023/12/02 11:44:48;;;;;;;59.22;26.52;;;0.00;99.90;;;;;;5048285;28;20052;-45
2023/12/02 11:47:46;;;;;;;54.87;25.17;;;0.00;99.90;;;;;;5045707;28;20042;-44
2023/12/02 11:50:32;;;;;;;52.03;24.27;;;-0.10;99.90;;;;;;5006314;28;20664;-45
2023/12/02 11:53:20;;;;;;;56.40;25.02;;;-0.10;99.90;;;;;;5046908;28;20021;-43
2023/12/02 11:56:11;;;;;;;57.80;24.48;;;-0.10;99.90;;;;;;5048077;28;20024;-47
2023/12/02 11:59:02;;;;;;;55.15;26.08;;;-0.10;99.90;;;;;;5047542;28;20204;-44
2023/12/02 12:01:40;;;;;;;;;;;-0.20;99.90;;;;;;5049011;28;20033;-46
2023/12/02 12:04:40;;;;;;;56.55;24.90;;;-0.10;99.90;;;;;;5048300;28;20353;-43
2023/12/02 12:07:12;;;;;;;58.38;24.65;;;-0.10;99.90;;;;;;5048322;28;20037;-44
2023/12/02 12:09:44;;;;;;;58.85;26.65;;;-0.10;99.90;;;;;;5047948;28;20036;-46
2023/12/02 12:12:13;;;;;;;60.92;25.75;;;-0.10;99.90;;;;;;5046990;28;20025;-45
2023/12/02 12:14:39;;;;;;;61.92;26.83;;;-0.20;99.90;;;;;;5048128;28;20485;-46
2023/12/02 12:17:06;;;;;;;56.92;25.80;;;-0.10;99.90;;;;;;5047992;28;20052;-46
2023/12/02 12:19:32;;;;;;;63.40;28.55;;;-0.10;99.90;;;;;;5063148;28;20091;-46
2023/12/02 12:21:57;;;;;;;60.00;27.15;;;0.00;99.90;;;;;;5048154;28;20056;-45
2023/12/02 12:24:23;;;;;;;59.78;28.98;;;-0.10;99.90;;;;;;5047889;28;20025;-46
2023/12/02 12:26:49;;;;;;;61.25;27.00;;;0.00;99.90;;;;;;5047516;28;20021;-48
2023/12/02 12:29:19;;;;;;;71.85;30.10;;;0.00;99.90;;;;;;5047729;28;20118;-45
2023/12/02 12:31:45;;;;;;;60.55;27.98;;;0.00;99.90;;;;;;5047856;28;20036;-48
2023/12/02 12:34:14;;;;;;;62.13;26.30;;;-0.10;99.90;;;;;;5048056;28;20033;-47
2023/12/02 12:36:41;;;;;;;71.10;29.53;;;0.00;99.90;;;;;;5047809;28;20021;-49
2023/12/02 12:39:07;;;;;;;64.47;28.73;;;0.00;99.90;;;;;;5048921;28;20025;-47
2023/12/02 12:41:36;;;;;;;57.13;24.40;;;0.00;99.90;;;;;;5051929;28;20083;-45